Nearby METAR Reports

 

KEWB - New Bedford, Massachusetts, USA
Distance from station: ESE 9mi, 15km
Updated: Thu, 26-Nov-2020 10:44pm EST
NOT Current
Fog, Overcast
Fog, Overcast
 Wind from calm
Wind: Calm
Temperature: 50°F , 10°C
Dew Point: 48°F , 9°C
Humidity: 94%
Barometer: 29.99 inHg , 1015.6 hPa
Summary: Fog
Clouds: Overcast
Visibility: 1/4 mile , 0.4 km
Cloud details: Overcast 100 ft
2020/11/27 03:44 KEWB 270344Z AUTO 00000KT 1/4SM R05/1200V2000FT FG VV001 10/09 A2999 RMK AO2 T01000094
KTAN - Taunton, Massachusetts, USA
Distance from station: NNE 11mi, 18km
Updated: Thu, 26-Nov-2020 10:44pm EST
NOT Current
Mist, Few clouds
Mist, Few clouds
 Wind from calm
Wind: Calm
Temperature: 52°F , 11°C
Dew Point: 52°F , 11°C
Humidity: 100%
Barometer: 29.99 inHg , 1015.6 hPa
Summary: Mist
Clouds: Few Clouds
Visibility: 1 1/4 miles , 2 km
Cloud details: Few Clouds 500 ft
2020/11/27 03:44 KTAN 270344Z AUTO 00000KT 1 1/4SM BR FEW005 11/11 A2999 RMK AO2 VIS 1/4V5 T01110106 $
 
KPVD - Providence/Green, Rhode Island, USA
Distance from station: W 16mi, 26km
Updated: Thu, 26-Nov-2020 10:22pm EST
NOT Current
Patches of fog, Mist, Clear
Patches of fog, Mist, Clear
 Wind from W
Wind: W 3 mph , 6 km/h
Temperature: 54°F , 12°C
Dew Point: 54°F , 12°C
Humidity: 100%
Barometer: 30.00 inHg , 1015.9 hPa
Summary: Patches of fog, Mist
Clouds: Clear
Visibility: 4 miles , 6 km
2020/11/27 03:22 KPVD 270322Z 26003KT 4SM BCFG BR CLR 12/12 A3000 RMK AO2 T01170117
KUUU - Newport, Rhode Island, USA
Distance from station: SSW 16mi, 27km
Updated: Thu, 26-Nov-2020 9:53pm EST
NOT Current
Mist, Clear
Mist, Clear
 Wind from varies
Wind: varies 3 mph , 6 km/h
Temperature: 54°F , 12°C
Dew Point: 54°F , 12°C
Humidity: 100%
Barometer: 30.00 inHg , 1015.9 hPa
Summary: Mist
Clouds: Clear
Visibility: 6 miles , 10 km
2020/11/27 02:53 KUUU 270253Z AUTO VRB03KT 6SM BR CLR 12/12 A3000 RMK AO2 SLP157 T01170117 51003
 
KOQU - N. Kingston/Quon, Rhode Island, USA
Distance from station: WSW 18mi, 29km
Updated: Wed, 25-Nov-2020 10:50pm EST
NOT Current
Partly cloudy
Partly cloudy
 Wind from SW
Wind: SW 6 mph , 9 km/h
Temperature: 52°F , 11°C
Dew Point: 46°F , 8°C
Humidity: 82%
Barometer: 30.22 inHg , 1023.4 hPa
Clouds: Partly cloudy
Visibility: 10 miles , 16 km
Cloud details: Partly cloudy 8000 ft
2020/11/26 03:50 KOQU 260350Z 23005KT 10SM SCT080 11/08 A3022 RMK LAST
KPYM - Plymouth, Massachusetts, USA
Distance from station: ENE 23mi, 37km
Updated: Thu, 26-Nov-2020 9:52pm EST
NOT Current
Clear
Clear
 Wind from WSW
Wind: WSW 6 mph , 9 km/h
Temperature: 54°F , 12°C
Dew Point: 52°F , 11°C
Humidity: 94%
Barometer: 29.98 inHg , 1015.2 hPa
Clouds: Clear
Visibility: 10 miles , 16 km
2020/11/27 02:52 KPYM 270252Z AUTO 25005KT 10SM CLR 12/11 A2998 RMK AO2 SLP153 T01170111 51008
 
KSFZ - Pawtucket, Rhode Island, USA
Distance from station: WNW 23mi, 38km
Updated: Thu, 26-Nov-2020 9:56pm EST
NOT Current
Clear
Clear
 Wind from WNW
Wind: WNW 5 mph , 7 km/h
Temperature: 52°F , 11°C
Dew Point: 52°F , 11°C
Humidity: 100%
Barometer: 30.00 inHg , 1015.9 hPa
Clouds: Clear
Visibility: 10 miles , 16 km
2020/11/27 02:56 KSFZ 270256Z AUTO 29004KT 10SM CLR 11/11 A3000 RMK AO2 SLP106 T01110111 51009
KOWD - Norwood, Massachusetts, USA
Distance from station: N 31mi, 50km
Updated: Thu, 26-Nov-2020 9:53pm EST
NOT Current
Fog, Overcast
Fog, Overcast
 Wind from NW
Wind: NW 3 mph , 6 km/h
Temperature: 50°F , 10°C
Dew Point: 48°F , 9°C
Humidity: 94%
Barometer: 29.99 inHg , 1015.6 hPa
Summary: Fog
Clouds: Overcast
Visibility: 1/4 mile , 0.4 km
Cloud details: Overcast 200 ft
2020/11/27 02:53 KOWD 270253Z AUTO 31003KT 1/4SM FG VV002 10/09 A2999 RMK AO2 SLP156 T01000089 51013
 
KFMH - Falmouth/Otis Ab, Massachusetts, USA
Distance from station: ESE 32mi, 51km
Updated: Thu, 26-Nov-2020 9:56pm EST
NOT Current
Overcast
Overcast
 Wind from WSW
Wind: WSW 7 mph , 11 km/h
Temperature: 54°F , 12°C
Dew Point: 54°F , 12°C
Humidity: 100%
Barometer: 30.00 inHg , 1015.9 hPa
Clouds: Overcast
Visibility: 1/4 mile , 0.4 km
Cloud details: Overcast 200 ft
2020/11/27 02:56 KFMH 270256Z COR 25006KT 1/4SM VV002 12/12 A3000
KMQE - East Milton, Massachusetts, USA
Distance from station: N 33mi, 53km
Updated: Thu, 26-Nov-2020 9:51pm EST
NOT Current

 Wind from W
Wind: W 12 mph , 19 km/h
Temperature: 48°F , 9°C
Wind Chill: 43°F , 6°C
Dew Point: 46°F , 8°C
Humidity: 94%
Barometer: 29.98 inHg , 1015.2 hPa
2020/11/27 02:51 KMQE 270251Z AUTO 27010KT 09/08 A2998 RMK AO1 SLP162 T00890083 51009
 
KGHG - Marshfield, Massachusetts, USA
Distance from station: NE 34mi, 55km
Updated: Thu, 26-Nov-2020 10:35pm EST
NOT Current
Fog, Overcast
Fog, Overcast
 Wind from calm
Wind: Calm
Temperature: 50°F , 10°C
Dew Point: 50°F , 10°C
Humidity: 100%
Barometer: 29.99 inHg , 1015.6 hPa
Summary: Fog
Clouds: Overcast
Visibility: 1/4 mile , 0.4 km
Cloud details: Overcast 600 ft
2020/11/27 03:35 KGHG 270335Z AUTO 00000KT 1/4SM FG OVC006 10/10 A2999 RMK AO2
KMVY - Marthas Vineyard, Massachusetts, USA
Distance from station: SE 35mi, 56km
Updated: Thu, 26-Nov-2020 10:23pm EST
NOT Current
Partly cloudy
Partly cloudy
 Wind from W
Wind: W 6 mph , 9 km/h
Temperature: 54°F , 12°C
Dew Point: 54°F , 12°C
Humidity: 100%
Barometer: 30.01 inHg , 1016.3 hPa
Clouds: Partly cloudy
Visibility: 10 miles , 16 km
Cloud details: Partly cloudy 300 ft
2020/11/27 03:23 KMVY 270323Z AUTO 27005KT 10SM SCT003 12/12 A3001 RMK AO2 T01220122
 
KBOS - Boston, Massachusetts, USA
Distance from station: N 44mi, 71km
Updated: Thu, 26-Nov-2020 9:54pm EST
NOT Current
Fog, Overcast
Fog, Overcast
 Wind from WNW
Wind: WNW 7 mph , 11 km/h
Temperature: 46°F , 8°C
Wind Chill: 42°F , 6°C
Dew Point: 45°F , 7°C
Humidity: 93%
Barometer: 30.00 inHg , 1015.9 hPa
Summary: Fog
Clouds: Overcast
Visibility: 1/2 mile , 0.8 km
Cloud details: Overcast 300 ft
2020/11/27 02:54 KBOS 270254Z 30006KT 1/2SM R04R/P6000FT FG OVC003 08/07 A3000 RMK AO2 SLP158 T00780072 51015
KHYA - Hyannis, Massachusetts, USA
Distance from station: E 44mi, 71km
Updated: Thu, 26-Nov-2020 10:25pm EST
NOT Current
Partly cloudy
Partly cloudy
 Wind from WSW
Wind: WSW 7 mph , 11 km/h
Temperature: 54°F , 12°C
Dew Point: 54°F , 12°C
Humidity: 100%
Barometer: 29.98 inHg , 1015.2 hPa
Clouds: Partly cloudy
Visibility: 10 miles , 16 km
Cloud details: Partly cloudy 500 ft
2020/11/27 03:25 KHYA 270325Z AUTO 25006KT 10SM SCT005 12/12 A2998 RMK AO2 T01220122
 
KWST - Westerly, Rhode Island, USA
Distance from station: SW 44mi, 71km
Updated: Thu, 26-Nov-2020 9:53pm EST
NOT Current
Clear
Clear
 Wind from calm
Wind: Calm
Temperature: 54°F , 12°C
Dew Point: 52°F , 11°C
Humidity: 94%
Barometer: 30.01 inHg , 1016.3 hPa
Clouds: Clear
Visibility: 10 miles , 16 km
2020/11/27 02:53 KWST 270253Z AUTO 00000KT 10SM CLR 12/11 A3001 RMK AO2 SLP160 T01170106 51002
KBID - Block Island, Rhode Island, USA
Distance from station: SSW 46mi, 74km
Updated: Thu, 26-Nov-2020 9:56pm EST
NOT Current
Clear
Clear
 Wind from W
Wind: W 7 mph , 11 km/h
Temperature: 52°F , 11°C
Dew Point: 52°F , 11°C
Humidity: 100%
Barometer: 30.02 inHg , 1016.6 hPa
Clouds: Clear
Visibility: 10 miles , 16 km
2020/11/27 02:56 KBID 270256Z AUTO 26006KT 10SM CLR 11/11 A3002 RMK AO2 SLP165 60001 T01110106 51006